Terminal Aerodrome Forecast
Issued by NWS

Home | Current Version | Previous Version | Graphics & Text | Print | Product List | Glossary On
Versions: 1 2 3 4 5 6 7 8 9 10 11 12 13 14 15 16 17 18 19 20 21 22 23 24 25 26 27 28 29 30 31
000
FTUS43 KLOT 172000 AAA
TAFDPA
TAF AMD
KDPA 172004Z 1720/1818 24013KT P6SM FEW030 BKN250
     FM180100 31004KT P6SM SCT040 BKN100
     FM180500 36004KT P6SM SCT030 BKN080
     FM181100 03007KT P6SM SCT050=

USA.gov is the U.S. government's official web portal to all federal, state and local government web resources and services.